createdAt,value
2019-02-22T00:04:14.912Z,59817.69
2019-02-22T00:06:41.270Z,59827.07
2019-02-22T00:12:14.856Z,59821.79
2019-02-22T00:14:41.098Z,59820.01
2019-02-22T00:17:07.336Z,59820.56
2019-02-22T00:19:33.564Z,59815.46
2019-02-22T00:21:59.804Z,59819.21
2019-02-22T00:24:26.027Z,59794.89
2019-02-22T00:26:52.274Z,59794.93
2019-02-22T00:29:18.504Z,59780.86
2019-02-22T00:31:44.766Z,59782.25
2019-02-22T00:34:11.042Z,59790.50
2019-02-22T00:36:37.376Z,59796.81
2019-02-22T00:42:17.447Z,59819.74
2019-02-22T00:44:43.696Z,59808.66
2019-02-22T00:47:09.930Z,59787.68
2019-02-22T00:49:36.151Z,59806.58
2019-02-22T00:52:02.406Z,59795.48
2019-02-22T00:54:28.633Z,59793.43
2019-02-22T00:56:54.880Z,59794.99
2019-02-22T00:59:21.104Z,59797.62
2019-02-22T01:01:47.357Z,59777.52
2019-02-22T01:04:13.587Z,59795.52
2019-02-22T01:06:39.830Z,59773.86
2019-02-22T01:09:06.160Z,59769.47
2019-02-22T01:11:32.395Z,59769.11
2019-02-22T01:13:58.627Z,59780.94
2019-02-22T01:16:24.855Z,59765.08
2019-02-22T01:18:51.137Z,59778.82
2019-02-22T01:21:17.360Z,59782.15
2019-02-22T01:23:43.588Z,59767.88
2019-02-22T01:26:09.831Z,59765.08
2019-02-22T01:28:36.083Z,59776.72
2019-02-22T01:31:02.314Z,59774.43
2019-02-22T01:33:28.560Z,59777.07
2019-02-22T01:35:54.787Z,59766.86
2019-02-22T01:38:21.029Z,59788.70
2019-02-22T01:40:47.287Z,59788.17
2019-02-22T01:43:13.526Z,59788.17
2019-02-22T01:45:39.751Z,59771.23
2019-02-22T01:48:06.003Z,59793.23
2019-02-22T01:50:32.239Z,59791.27
2019-02-22T01:52:58.496Z,59777.86
2019-02-22T01:55:24.725Z,59774.70
2019-02-22T01:57:50.973Z,59781.27
2019-02-22T02:00:17.203Z,59786.02
2019-02-22T02:02:43.440Z,59793.43
2019-02-22T02:05:09.669Z,59772.76
2019-02-22T02:07:35.892Z,59782.77
2019-02-22T02:12:55.974Z,59781.36
2019-02-22T02:15:22.205Z,59793.19
2019-02-22T02:17:48.454Z,59788.80
2019-02-22T02:20:14.732Z,59784.41
2019-02-22T02:22:40.939Z,59798.68
2019-02-22T02:25:48.483Z,59791.09
2019-02-22T02:28:14.721Z,59777.86
2019-02-22T02:30:40.960Z,59789.23
2019-02-22T02:33:07.195Z,59772.43
2019-02-22T02:35:33.420Z,59777.52
2019-02-22T02:37:59.668Z,59776.46
2019-02-22T02:40:25.922Z,59793.87
2019-02-22T02:42:52.146Z,59795.93
2019-02-22T02:45:18.393Z,59800.18
2019-02-22T02:47:44.614Z,59804.99
2019-02-22T02:50:52.172Z,59788.62
2019-02-22T02:53:18.423Z,59784.78
2019-02-22T02:55:44.668Z,59779.68
2019-02-22T02:58:10.929Z,59770.70
2019-02-22T03:03:11.094Z,59766.84
2019-02-22T03:06:18.648Z,59759.98
2019-02-22T03:08:44.880Z,59769.53
2019-02-22T03:11:20.146Z,59783.43
2019-02-22T03:13:39.260Z,59764.20
2019-02-22T03:16:05.500Z,59776.90
2019-02-22T03:18:31.728Z,59757.71
2019-02-22T03:20:57.979Z,59760.02
2019-02-22T03:23:24.201Z,59720.43
2019-02-22T03:25:50.442Z,59783.96
2019-02-22T03:28:16.667Z,59776.00
2019-02-22T03:30:42.924Z,59769.47
2019-02-22T03:33:09.149Z,59778.98
2019-02-22T03:35:35.392Z,59783.92
2019-02-22T03:38:01.620Z,59773.86
2019-02-22T03:40:27.875Z,59784.41
2019-02-22T03:42:54.082Z,59783.35
2019-02-22T03:45:20.326Z,59780.39
2019-02-22T03:47:46.657Z,59766.84
2019-02-22T03:50:12.937Z,59785.55
2019-02-22T03:52:58.909Z,59787.11
2019-02-22T03:55:25.155Z,59782.92
2019-02-22T03:57:51.389Z,59764.57
2019-02-22T04:00:17.640Z,59783.96
2019-02-22T04:02:43.889Z,59767.18
2019-02-22T04:05:10.103Z,59770.35
2019-02-22T04:07:36.344Z,59768.41
2019-02-22T04:10:43.895Z,59772.51
2019-02-22T04:13:10.123Z,59766.67
2019-02-22T04:15:36.375Z,59779.35
2019-02-22T04:18:02.744Z,59780.76
2019-02-22T04:20:28.985Z,59783.54
2019-02-22T04:22:55.229Z,59789.68
2019-02-22T04:25:21.464Z,59813.43
2019-02-22T04:27:47.702Z,59819.79
2019-02-22T04:30:14.023Z,59830.27
2019-02-22T04:32:40.259Z,59808.79
2019-02-22T04:35:06.483Z,59804.18
2019-02-22T04:37:32.726Z,59798.73
2019-02-22T04:39:58.957Z,59794.54
2019-02-22T04:42:25.200Z,59795.29
2019-02-22T04:44:51.430Z,59806.63
2019-02-22T04:47:17.686Z,59836.17
2019-02-22T04:49:43.919Z,59860.29
2019-02-22T04:52:10.155Z,59871.44
2019-02-22T04:54:36.399Z,59874.07
2019-02-22T04:57:02.640Z,59867.11
2019-02-22T04:59:28.873Z,59833.21
2019-02-22T05:01:55.113Z,59816.17
2019-02-22T05:04:21.443Z,59816.05
2019-02-22T05:06:47.697Z,59786.11
2019-02-22T05:09:13.935Z,59803.43
2019-02-22T05:11:40.213Z,59793.50
2019-02-22T05:14:06.440Z,59844.49
2019-02-22T05:16:32.672Z,59851.10
2019-02-22T05:18:58.911Z,59853.35
2019-02-22T05:21:25.136Z,59863.69
2019-02-22T05:23:51.378Z,59891.35
2019-02-22T05:26:17.615Z,59900.83
2019-02-22T05:28:43.851Z,59906.64
2019-02-22T05:31:10.075Z,59915.59
2019-02-22T05:33:36.325Z,59911.50
2019-02-22T05:36:02.552Z,59903.39
2019-02-22T05:38:28.792Z,59900.38
2019-02-22T05:40:55.024Z,59919.29
2019-02-22T05:43:21.261Z,59908.21
2019-02-22T05:45:47.495Z,59892.30
2019-02-22T05:48:13.735Z,59909.05
2019-02-22T05:50:39.994Z,59894.46
2019-02-22T05:53:06.229Z,59865.61
2019-02-22T05:55:32.454Z,59869.68
2019-02-22T05:57:58.702Z,59898.73
2019-02-22T06:00:24.940Z,59904.30
2019-02-22T06:02:51.177Z,59922.45
2019-02-22T06:05:17.410Z,59912.96
2019-02-22T06:07:43.634Z,59911.90
2019-02-22T06:10:51.178Z,59898.73
2019-02-22T06:13:17.436Z,59859.09
2019-02-22T06:15:43.670Z,59860.37
2019-02-22T06:21:04.281Z,59850.39
2019-02-22T06:23:30.525Z,59837.87
2019-02-22T06:25:56.756Z,59829.63
2019-02-22T06:28:23.043Z,59856.51
2019-02-22T06:30:49.349Z,59873.74
2019-02-22T06:33:15.576Z,59877.65
2019-02-22T06:35:41.813Z,59879.77
2019-02-22T06:38:08.034Z,59867.05
2019-02-22T06:40:34.276Z,59877.12
2019-02-22T06:43:00.491Z,59864.37
2019-02-22T06:45:26.729Z,59871.55
2019-02-22T06:47:52.953Z,59899.79
2019-02-22T06:50:19.200Z,59884.43
2019-02-22T06:52:45.437Z,59877.54
2019-02-22T06:55:11.672Z,59899.26
2019-02-22T06:57:37.903Z,59899.90
2019-02-22T07:00:23.892Z,59902.31
2019-02-22T07:02:50.133Z,59927.73
2019-02-22T07:05:16.376Z,59914.09
2019-02-22T07:07:42.628Z,59938.59
2019-02-22T07:10:50.173Z,59939.40
2019-02-22T07:13:16.417Z,59950.96
2019-02-22T07:15:42.652Z,59999.47
2019-02-22T07:18:08.996Z,60056.43
2019-02-22T07:20:35.210Z,60079.16
2019-02-22T07:23:01.455Z,60106.58
2019-02-22T07:25:27.697Z,60094.34
2019-02-22T07:27:53.934Z,60098.34
2019-02-22T07:30:20.164Z,60134.59
2019-02-22T07:32:46.434Z,60177.91
2019-02-22T07:35:14.249Z,60207.54
2019-02-22T07:37:40.767Z,60210.41
2019-02-22T07:40:07.116Z,60223.27
2019-02-22T07:42:33.342Z,60262.25
2019-02-22T07:44:59.572Z,60275.83
2019-02-22T07:47:25.811Z,60319.22
2019-02-22T07:49:52.048Z,60340.40
2019-02-22T07:52:18.290Z,60356.29
2019-02-22T07:54:44.524Z,60352.61
2019-02-22T07:57:10.765Z,60367.70
2019-02-22T07:59:36.988Z,60379.90
2019-02-22T08:04:56.924Z,60438.74
2019-02-22T08:07:23.159Z,60472.01
2019-02-22T08:09:49.379Z,60490.68
2019-02-22T08:12:15.620Z,60537.70
2019-02-22T08:14:41.849Z,60550.01
2019-02-22T08:17:08.099Z,60569.73
2019-02-22T08:19:34.338Z,60598.21
2019-02-22T08:22:03.337Z,60629.09
2019-02-22T08:24:28.691Z,60649.29
2019-02-22T08:26:54.931Z,60656.46
2019-02-22T08:29:21.174Z,60667.46
2019-02-22T08:31:47.424Z,60678.43
2019-02-22T08:34:13.655Z,60698.77
2019-02-22T08:36:39.895Z,60702.22
2019-02-22T08:39:06.127Z,60725.37
2019-02-22T08:41:32.369Z,60743.46
2019-02-22T08:43:58.591Z,60751.37
2019-02-22T08:46:24.817Z,60777.81
2019-02-22T08:48:51.047Z,60813.84
2019-02-22T08:51:17.279Z,60851.73
2019-02-22T08:53:43.524Z,60928.45
2019-02-22T08:56:09.743Z,60979.14
2019-02-22T08:58:35.975Z,61085.37
2019-02-22T09:01:02.204Z,61119.69
2019-02-22T09:03:28.443Z,61157.80
2019-02-22T09:05:54.664Z,61220.41
2019-02-22T09:08:20.899Z,61277.46
2019-02-22T09:10:47.131Z,61330.41
2019-02-22T09:13:13.385Z,61359.07
2019-02-22T09:15:39.608Z,61400.12
2019-02-22T09:18:05.840Z,61425.11
2019-02-22T09:20:32.075Z,61472.89
2019-02-22T09:22:58.314Z,61541.93
2019-02-22T09:25:24.643Z,61562.04
2019-02-22T09:27:50.880Z,61593.09
2019-02-22T09:30:17.107Z,61648.34
2019-02-22T09:32:43.353Z,61668.70
2019-02-22T09:35:50.888Z,61719.38
2019-02-22T09:38:17.132Z,61731.23
2019-02-22T09:40:43.368Z,61784.55
2019-02-22T09:43:09.618Z,61798.78
2019-02-22T09:45:35.852Z,61831.60
2019-02-22T09:48:02.097Z,61875.31
2019-02-22T09:50:28.331Z,61917.14
2019-02-22T09:52:54.573Z,61942.62
2019-02-22T09:55:20.812Z,61992.17
2019-02-22T09:57:47.067Z,62004.89
2019-02-22T10:00:54.620Z,62062.38
2019-02-22T10:03:20.837Z,62082.81
2019-02-22T10:05:47.092Z,62102.92
2019-02-22T10:08:13.324Z,62124.55
2019-02-22T10:10:39.563Z,62138.61
2019-02-22T10:13:05.807Z,62135.51
2019-02-22T10:15:32.043Z,62164.45
2019-02-22T10:17:58.273Z,62174.18
2019-02-22T10:20:24.508Z,62184.58
2019-02-22T10:22:50.736Z,62191.07
2019-02-22T10:25:16.976Z,62182.16
2019-02-22T10:27:43.203Z,62201.52
2019-02-22T10:30:50.741Z,62224.58
2019-02-22T10:33:16.968Z,62256.03
2019-02-22T10:35:43.214Z,62273.90
2019-02-22T10:38:09.436Z,62288.53
2019-02-22T10:40:35.685Z,62297.05
2019-02-22T10:43:01.916Z,62302.61
2019-02-22T10:45:28.149Z,62295.98
2019-02-22T10:47:54.375Z,62298.01
2019-02-22T10:50:20.611Z,62318.30
2019-02-22T10:52:47.069Z,62314.47
2019-02-22T10:55:13.293Z,62329.69
2019-02-22T10:57:39.520Z,62321.03
2019-02-22T11:00:47.121Z,62304.16
2019-02-22T11:03:13.387Z,62323.06
2019-02-22T11:05:39.619Z,62334.09
2019-02-22T11:08:05.857Z,62332.26
2019-02-22T11:10:32.089Z,62339.31
2019-02-22T11:12:58.315Z,62351.78
2019-02-22T11:15:24.562Z,62349.14
2019-02-22T11:17:50.789Z,62340.27
2019-02-22T11:20:17.052Z,62351.91
2019-02-22T11:22:43.280Z,62353.55
2019-02-22T11:25:29.277Z,62341.88
2019-02-22T11:27:55.509Z,62358.96
2019-02-22T11:30:21.750Z,62362.75
2019-02-22T11:32:48.095Z,62366.62
2019-02-22T11:35:14.324Z,62377.94
2019-02-22T11:37:40.554Z,62384.98
2019-02-22T11:40:48.129Z,62387.02
2019-02-22T11:43:14.322Z,62380.91
2019-02-22T11:45:40.578Z,62384.98
2019-02-22T11:48:09.413Z,62357.80
2019-02-22T11:50:34.960Z,62356.65
2019-02-22T11:53:01.206Z,62352.72
2019-02-22T11:55:27.541Z,62344.80
2019-02-22T11:57:53.776Z,62350.70
2019-02-22T12:00:39.783Z,62358.96
2019-02-22T12:03:21.207Z,62342.30
2019-02-22T12:05:34.152Z,62341.49
2019-02-22T12:08:00.406Z,62273.97
2019-02-22T12:10:26.640Z,62337.15
2019-02-22T12:12:52.891Z,62345.41
2019-02-22T12:15:19.128Z,62338.77
2019-02-22T12:17:45.381Z,62339.44
2019-02-22T12:20:11.620Z,62321.52
2019-02-22T12:22:37.869Z,62320.62
2019-02-22T12:25:45.408Z,62319.27
2019-02-22T12:28:11.653Z,62316.02
2019-02-22T12:30:37.885Z,62323.73
2019-02-22T12:33:04.224Z,62325.35
2019-02-22T12:38:37.804Z,62317.78
2019-02-22T12:41:04.153Z,62314.93
2019-02-22T12:43:30.405Z,62326.44
2019-02-22T12:45:56.637Z,62317.92
2019-02-22T12:48:22.889Z,62321.58
2019-02-22T12:50:49.137Z,62323.54
2019-02-22T12:53:15.379Z,62340.53
2019-02-22T12:55:41.605Z,62325.29
2019-02-22T12:58:07.858Z,62330.11
2019-02-22T13:00:34.070Z,62331.20
2019-02-22T13:03:02.335Z,62322.04
2019-02-22T13:08:42.282Z,62342.71
2019-02-22T13:11:08.511Z,62338.37
2019-02-22T13:13:34.763Z,62339.44
2019-02-22T13:16:00.991Z,62332.26
2019-02-22T13:18:27.240Z,62325.29
2019-02-22T13:20:53.463Z,62330.04
2019-02-22T13:23:19.703Z,62342.71
2019-02-22T13:25:45.927Z,62339.98
2019-02-22T13:28:12.180Z,62333.00
2019-02-22T13:30:38.412Z,62336.19
2019-02-22T13:33:04.643Z,62332.94
2019-02-22T13:35:30.874Z,62317.63
2019-02-22T13:37:57.108Z,62303.42
2019-02-22T13:40:23.354Z,62306.67
2019-02-22T13:42:49.576Z,62326.44
2019-02-22T13:45:26.244Z,62316.56
2019-02-22T13:47:43.971Z,62311.20
2019-02-22T13:50:29.968Z,62323.19
2019-02-22T13:52:56.219Z,62312.29
2019-02-22T13:55:22.461Z,62326.98
2019-02-22T13:57:48.693Z,62317.85
2019-02-22T14:00:56.251Z,62325.35
2019-02-22T14:03:22.484Z,62326.44
2019-02-22T14:05:48.719Z,62328.62
2019-02-22T14:08:14.947Z,62325.35
2019-02-22T14:10:41.192Z,62311.14
2019-02-22T14:13:07.422Z,62308.98
2019-02-22T14:15:38.094Z,62309.52
2019-02-22T14:18:01.805Z,62309.52
2019-02-22T14:20:28.047Z,62306.95
2019-02-22T14:22:54.291Z,62300.30
2019-02-22T14:25:20.539Z,62300.52
2019-02-22T14:27:46.767Z,62303.70
2019-02-22T14:30:54.313Z,62286.29
2019-02-22T14:33:20.580Z,62296.64
2019-02-22T14:35:46.820Z,62281.82
2019-02-22T14:38:13.039Z,62291.77
2019-02-22T14:40:39.280Z,62290.68
2019-02-22T14:43:15.818Z,62289.59
2019-02-22T14:45:33.660Z,62286.34
2019-02-22T14:47:59.902Z,62284.73
2019-02-22T14:50:26.146Z,62269.31
2019-02-22T14:52:52.387Z,62282.03
2019-02-22T14:55:18.647Z,62266.67
2019-02-22T14:57:45.455Z,62277.15
2019-02-22T15:03:13.484Z,62271.74
2019-02-22T15:05:39.724Z,62260.24
2019-02-22T15:08:05.953Z,62267.95
2019-02-22T15:13:26.327Z,62262.52
2019-02-22T15:16:12.326Z,62244.95
2019-02-22T15:18:38.573Z,62252.66
2019-02-22T15:21:04.811Z,62246.56
2019-02-22T15:23:31.046Z,62253.20
2019-02-22T15:25:57.284Z,62260.37
2019-02-22T15:28:23.508Z,62252.85
2019-02-22T15:30:49.764Z,62248.32
2019-02-22T15:33:15.974Z,62250.61
2019-02-22T15:35:42.196Z,62244.66
2019-02-22T15:38:10.073Z,62229.44
2019-02-22T15:40:39.210Z,62237.36
2019-02-22T15:43:04.809Z,62224.58
2019-02-22T15:45:31.065Z,62237.62
2019-02-22T15:47:57.251Z,62236.01
2019-02-22T15:50:23.479Z,62220.05
2019-02-22T15:55:23.541Z,62220.05
2019-02-22T15:57:49.797Z,62218.96
2019-02-22T16:00:35.788Z,62235.46
2019-02-22T16:03:02.033Z,62236.53
2019-02-22T16:05:48.020Z,62238.16
2019-02-22T16:08:14.265Z,62237.62
2019-02-22T16:10:40.492Z,62228.82
2019-02-22T16:13:06.737Z,62228.30
2019-02-22T16:15:33.081Z,62222.75
2019-02-22T16:17:59.324Z,62240.32
2019-02-22T16:20:25.558Z,62239.25
2019-02-22T16:22:51.807Z,62239.78
2019-02-22T16:25:19.999Z,62233.70
2019-02-22T16:27:46.207Z,62240.32
2019-02-22T16:30:53.747Z,62240.32
2019-02-22T16:33:20.003Z,62224.04
2019-02-22T16:35:46.240Z,62225.86
2019-02-22T16:38:12.481Z,62241.41
2019-02-22T16:40:38.710Z,62227.09
2019-02-22T16:43:04.951Z,62243.04
2019-02-22T16:45:31.193Z,62231.27
2019-02-22T16:47:57.441Z,62243.04
2019-02-22T16:50:23.669Z,62244.11
2019-02-22T16:52:49.923Z,62237.30
2019-02-22T16:55:16.161Z,62232.55
2019-02-22T16:57:42.486Z,62229.98
2019-02-22T17:00:50.043Z,62242.50
2019-02-22T17:03:16.286Z,62234.44
2019-02-22T17:05:42.532Z,62249.54
2019-02-22T17:08:08.755Z,62253.33
2019-02-22T17:10:34.999Z,62238.85
2019-02-22T17:13:01.234Z,62239.39
2019-02-22T17:15:27.475Z,62235.19
2019-02-22T17:17:53.702Z,62247.36
2019-02-22T17:20:19.943Z,62233.99
2019-02-22T17:22:46.165Z,62234.32
2019-02-22T17:25:32.154Z,62235.41
2019-02-22T17:27:58.386Z,62248.45
2019-02-22T17:30:24.631Z,62253.33
2019-02-22T17:32:50.858Z,62244.47
2019-02-22T17:35:17.099Z,62242.77
2019-02-22T17:37:43.329Z,62258.73
2019-02-22T17:40:50.877Z,62249.41
2019-02-22T17:43:17.109Z,62258.19
2019-02-22T17:45:43.341Z,62256.03
2019-02-22T17:48:09.570Z,62256.03
2019-02-22T17:50:35.806Z,62251.57
2019-02-22T17:53:02.050Z,62252.11
2019-02-22T17:55:28.291Z,62246.97
2019-02-22T17:57:54.524Z,62248.39
2019-02-22T18:02:58.449Z,62244.95
2019-02-22T18:05:24.687Z,62260.37
2019-02-22T18:07:50.921Z,62260.37
2019-02-22T18:10:17.165Z,62245.69
2019-02-22T18:12:43.406Z,62259.82
2019-02-22T18:15:50.963Z,62247.30
2019-02-22T18:18:17.204Z,62248.06
2019-02-22T18:20:43.450Z,62261.43
2019-02-22T18:23:09.687Z,62258.19
2019-02-22T18:25:35.923Z,62259.28
2019-02-22T18:28:02.159Z,62242.99
2019-02-22T18:30:28.402Z,62244.79
2019-02-22T18:32:54.640Z,62244.60
2019-02-22T18:35:20.879Z,62249.41
2019-02-22T18:37:47.105Z,62258.19
2019-02-22T18:40:54.655Z,62248.87
2019-02-22T18:43:20.895Z,62240.48
2019-02-22T18:45:47.145Z,62241.83
2019-02-22T18:48:13.369Z,62239.26
2019-02-22T18:50:39.615Z,62236.82
2019-02-22T18:53:05.864Z,62252.79
2019-02-22T18:55:32.117Z,62256.03
2019-02-22T18:57:58.345Z,62254.94
2019-02-22T19:00:24.583Z,62245.34
2019-02-22T19:02:50.839Z,62242.77
2019-02-22T19:05:17.050Z,62245.88
2019-02-22T19:07:43.290Z,62260.91
2019-02-22T19:13:22.752Z,62264.68
2019-02-22T19:15:48.978Z,62258.61
2019-02-22T19:18:15.248Z,62255.91
2019-02-22T19:20:41.476Z,62263.61
2019-02-22T19:23:07.719Z,62266.86
2019-02-22T19:25:33.964Z,62259.63
2019-02-22T19:28:00.203Z,62266.19
2019-02-22T19:30:26.431Z,62274.45
2019-02-22T19:32:52.676Z,62264.97
2019-02-22T19:35:18.897Z,62279.85
2019-02-22T19:37:45.140Z,62280.94
2019-02-22T19:43:24.816Z,62275.39
2019-02-22T19:45:51.060Z,62281.20
2019-02-22T19:48:17.302Z,62286.34
2019-02-22T19:50:43.535Z,62288.53
2019-02-22T19:53:09.803Z,62290.68
2019-02-22T19:55:36.041Z,62291.77
2019-02-22T19:58:02.281Z,62291.77
2019-02-22T20:00:28.503Z,62292.86
2019-02-22T20:02:54.741Z,62287.31
2019-02-22T20:05:20.968Z,62288.40
2019-02-22T20:07:47.226Z,62285.61
2019-02-22T20:13:27.279Z,62287.85
2019-02-22T20:15:53.515Z,62283.39
2019-02-22T20:18:19.767Z,62283.39
2019-02-22T20:20:46.023Z,62299.36
2019-02-22T20:23:12.255Z,62290.55
2019-02-22T20:25:38.481Z,62291.10
2019-02-22T20:28:04.715Z,62300.97
2019-02-22T20:30:30.960Z,62303.70
2019-02-22T20:32:57.203Z,62291.04
2019-02-22T20:36:04.741Z,62288.46
2019-02-22T20:38:30.984Z,62300.97
2019-02-22T20:40:57.214Z,62304.50
2019-02-22T20:43:23.457Z,62283.39
2019-02-22T20:45:49.684Z,62278.72
2019-02-22T20:48:15.944Z,62289.59
2019-02-22T20:50:42.184Z,62272.75
2019-02-22T20:53:08.445Z,62287.43
2019-02-22T20:55:34.671Z,62283.10
2019-02-22T20:58:00.897Z,62281.48
2019-02-22T21:01:14.738Z,62267.54
2019-02-22T21:03:36.592Z,62272.36
2019-02-22T21:06:02.834Z,62283.10
2019-02-22T21:08:29.088Z,62275.51
2019-02-22T21:10:55.319Z,62258.61
2019-02-22T21:13:21.590Z,62267.41
2019-02-22T21:15:48.078Z,62273.90
2019-02-22T21:18:16.693Z,62271.27
2019-02-22T21:20:44.135Z,62272.14
2019-02-22T21:23:10.368Z,62279.30
2019-02-22T21:25:36.612Z,62280.39
2019-02-22T21:28:02.848Z,62283.10
2019-02-22T21:30:29.084Z,62271.59
2019-02-22T21:32:55.318Z,62280.94
2019-02-22T21:35:21.565Z,62269.44
2019-02-22T21:37:47.790Z,62269.56
2019-02-22T21:40:14.023Z,62250.77
2019-02-22T21:42:40.260Z,62259.15
2019-02-22T21:45:48.087Z,62260.24
2019-02-22T21:48:14.349Z,62267.95
2019-02-22T21:50:40.592Z,62269.02
2019-02-22T21:53:06.834Z,62252.53
2019-02-22T21:55:33.076Z,62266.86
2019-02-22T21:57:59.300Z,62251.98
2019-02-22T22:01:06.856Z,62255.63
2019-02-22T22:03:33.091Z,62259.96
2019-02-22T22:05:59.336Z,62280.94
2019-02-22T22:08:25.571Z,62269.50
2019-02-22T22:10:51.813Z,62270.25
2019-02-22T22:13:18.058Z,62269.18
2019-02-22T22:15:44.312Z,62267.89
2019-02-22T22:18:10.549Z,62276.41
2019-02-22T22:20:36.791Z,62280.01
2019-02-22T22:23:03.027Z,62287.72
2019-02-22T22:25:29.268Z,62281.62
2019-02-22T22:27:55.494Z,62282.36
2019-02-22T22:30:21.721Z,62290.68
2019-02-22T22:32:47.957Z,62299.90
2019-02-22T22:35:55.508Z,62292.71
2019-02-22T22:38:21.741Z,62302.06
2019-02-22T22:40:54.788Z,62303.70
2019-02-22T22:43:21.016Z,62308.56
2019-02-22T22:45:47.282Z,62305.73
2019-02-22T22:48:13.525Z,62314.25
2019-02-22T22:50:39.760Z,62333.48
2019-02-22T22:53:05.999Z,62329.56
2019-02-22T22:55:32.222Z,62326.73
2019-02-22T22:57:58.450Z,62336.19
2019-02-22T23:03:38.445Z,62338.37
2019-02-22T23:06:04.722Z,62348.12
2019-02-22T23:08:30.917Z,62348.12
2019-02-22T23:10:57.141Z,62346.48
2019-02-22T23:13:23.490Z,62337.02
2019-02-22T23:15:49.735Z,62343.78
2019-02-22T23:18:15.982Z,62329.84
2019-02-22T23:20:42.205Z,62339.18
2019-02-22T23:23:08.448Z,62343.32
2019-02-22T23:25:34.675Z,62347.57
2019-02-22T23:28:00.911Z,62341.07
2019-02-22T23:30:27.143Z,62323.87
2019-02-22T23:32:53.383Z,62321.16
2019-02-22T23:35:19.612Z,62338.37
2019-02-22T23:37:45.857Z,62323.32
2019-02-22T23:43:19.450Z,62331.33
2019-02-22T23:45:45.680Z,62330.04
2019-02-22T23:48:11.917Z,62335.67
2019-02-22T23:50:38.144Z,62346.48
2019-02-22T23:53:04.402Z,62332.55
2019-02-22T23:55:30.636Z,62339.31
2019-02-22T23:57:56.878Z,62338.50
